sensor_id;sensor_type;location;lat;lon;timestamp;P1;durP1;ratioP1;P2;durP2;ratioP2
74231;SDS011;62590;52.430;4.902;2022-09-13T00:00:52;25.23;;;13.07;;
74231;SDS011;62590;52.430;4.902;2022-09-13T00:03:17;25.65;;;13.20;;
74231;SDS011;62590;52.430;4.902;2022-09-13T00:05:44;26.00;;;12.70;;
74231;SDS011;62590;52.430;4.902;2022-09-13T00:08:09;23.58;;;13.00;;
74231;SDS011;62590;52.430;4.902;2022-09-13T00:10:36;24.08;;;12.07;;
74231;SDS011;62590;52.430;4.902;2022-09-13T00:13:03;23.13;;;12.55;;
74231;SDS011;62590;52.430;4.902;2022-09-13T00:15:30;26.83;;;13.20;;
74231;SDS011;62590;52.430;4.902;2022-09-13T00:17:55;21.55;;;13.40;;
74231;SDS011;62590;52.430;4.902;2022-09-13T00:20:21;22.60;;;13.68;;
74231;SDS011;62590;52.430;4.902;2022-09-13T00:22:46;26.40;;;14.32;;
74231;SDS011;62590;52.430;4.902;2022-09-13T00:25:11;24.42;;;14.35;;
74231;SDS011;62590;52.430;4.902;2022-09-13T00:27:37;25.05;;;15.10;;
74231;SDS011;62590;52.430;4.902;2022-09-13T00:30:03;23.33;;;13.25;;
74231;SDS011;62590;52.430;4.902;2022-09-13T00:32:30;23.25;;;11.80;;
74231;SDS011;62590;52.430;4.902;2022-09-13T00:34:56;20.88;;;12.80;;
74231;SDS011;62590;52.430;4.902;2022-09-13T00:37:21;19.50;;;11.75;;
74231;SDS011;62590;52.430;4.902;2022-09-13T00:39:47;22.80;;;12.15;;
74231;SDS011;62590;52.430;4.902;2022-09-13T00:42:12;17.23;;;10.55;;
74231;SDS011;62590;52.430;4.902;2022-09-13T00:47:13;18.38;;;10.30;;
74231;SDS011;62590;52.430;4.902;2022-09-13T00:49:42;19.45;;;10.13;;
74231;SDS011;62590;52.430;4.902;2022-09-13T00:52:12;16.90;;;9.88;;
74231;SDS011;62590;52.430;4.902;2022-09-13T00:54:44;16.48;;;9.88;;
74231;SDS011;62590;52.430;4.902;2022-09-13T00:57:14;18.10;;;9.27;;
74231;SDS011;62590;52.430;4.902;2022-09-13T00:59:43;20.65;;;10.43;;
74231;SDS011;62590;52.430;4.902;2022-09-13T01:02:12;18.38;;;10.27;;
74231;SDS011;62590;52.430;4.902;2022-09-13T01:04:39;18.33;;;10.68;;
74231;SDS011;62590;52.430;4.902;2022-09-13T01:07:06;19.33;;;9.80;;
74231;SDS011;62590;52.430;4.902;2022-09-13T01:09:37;17.48;;;9.95;;
74231;SDS011;62590;52.430;4.902;2022-09-13T01:14:55;16.52;;;9.32;;
74231;SDS011;62590;52.430;4.902;2022-09-13T01:17:22;21.15;;;10.65;;
74231;SDS011;62590;52.430;4.902;2022-09-13T01:19:49;16.58;;;9.85;;
74231;SDS011;62590;52.430;4.902;2022-09-13T01:30:23;15.52;;;9.48;;
74231;SDS011;62590;52.430;4.902;2022-09-13T01:43:57;17.70;;;9.00;;
74231;SDS011;62590;52.430;4.902;2022-09-13T01:47:02;16.63;;;8.80;;
74231;SDS011;62590;52.430;4.902;2022-09-13T01:49:52;21.27;;;8.93;;
74231;SDS011;62590;52.430;4.902;2022-09-13T01:57:46;19.00;;;7.55;;
74231;SDS011;62590;52.430;4.902;2022-09-13T02:00:23;13.70;;;7.28;;
74231;SDS011;62590;52.430;4.902;2022-09-13T02:05:20;17.48;;;7.57;;
74231;SDS011;62590;52.430;4.902;2022-09-13T02:07:56;16.98;;;7.25;;
74231;SDS011;62590;52.430;4.902;2022-09-13T02:10:37;16.10;;;7.18;;
74231;SDS011;62590;52.430;4.902;2022-09-13T02:13:10;14.23;;;7.15;;
74231;SDS011;62590;52.430;4.902;2022-09-13T02:15:45;11.10;;;6.93;;
74231;SDS011;62590;52.430;4.902;2022-09-13T02:20:50;17.73;;;7.82;;
74231;SDS011;62590;52.430;4.902;2022-09-13T02:23:20;15.98;;;7.05;;
74231;SDS011;62590;52.430;4.902;2022-09-13T02:25:49;9.57;;;6.55;;
74231;SDS011;62590;52.430;4.902;2022-09-13T02:28:20;14.23;;;6.68;;
74231;SDS011;62590;52.430;4.902;2022-09-13T02:30:52;14.07;;;6.57;;
74231;SDS011;62590;52.430;4.902;2022-09-13T02:33:23;10.73;;;6.57;;
74231;SDS011;62590;52.430;4.902;2022-09-13T02:36:06;21.80;;;6.03;;
74231;SDS011;62590;52.430;4.902;2022-09-13T02:38:43;16.00;;;6.57;;
74231;SDS011;62590;52.430;4.902;2022-09-13T02:41:13;17.92;;;7.57;;
74231;SDS011;62590;52.430;4.902;2022-09-13T02:43:45;17.05;;;7.63;;
74231;SDS011;62590;52.430;4.902;2022-09-13T02:51:47;17.20;;;7.10;;
74231;SDS011;62590;52.430;4.902;2022-09-13T02:54:31;13.88;;;7.30;;
74231;SDS011;62590;52.430;4.902;2022-09-13T02:57:18;19.85;;;7.60;;
74231;SDS011;62590;52.430;4.902;2022-09-13T02:59:50;20.85;;;7.78;;
74231;SDS011;62590;52.430;4.902;2022-09-13T03:02:17;13.20;;;7.43;;
74231;SDS011;62590;52.430;4.902;2022-09-13T03:04:45;15.13;;;6.90;;
74231;SDS011;62590;52.430;4.902;2022-09-13T03:07:11;24.05;;;8.75;;
74231;SDS011;62590;52.430;4.902;2022-09-13T03:09:39;18.05;;;8.63;;
74231;SDS011;62590;52.430;4.902;2022-09-13T03:12:29;14.50;;;7.97;;
74231;SDS011;62590;52.430;4.902;2022-09-13T03:18:21;14.82;;;8.48;;
74231;SDS011;62590;52.430;4.902;2022-09-13T03:21:03;15.45;;;7.30;;
74231;SDS011;62590;52.430;4.902;2022-09-13T03:23:38;14.50;;;7.78;;
74231;SDS011;62590;52.430;4.902;2022-09-13T03:31:32;14.77;;;8.38;;
74231;SDS011;62590;52.430;4.902;2022-09-13T03:41:56;15.60;;;8.02;;
74231;SDS011;62590;52.430;4.902;2022-09-13T03:44:26;12.02;;;7.00;;
74231;SDS011;62590;52.430;4.902;2022-09-13T03:46:56;14.52;;;6.85;;
74231;SDS011;62590;52.430;4.902;2022-09-13T03:49:25;14.38;;;7.43;;
74231;SDS011;62590;52.430;4.902;2022-09-13T03:51:52;17.73;;;8.23;;
74231;SDS011;62590;52.430;4.902;2022-09-13T03:54:20;16.67;;;8.45;;
74231;SDS011;62590;52.430;4.902;2022-09-13T03:59:39;23.75;;;9.80;;
74231;SDS011;62590;52.430;4.902;2022-09-13T04:02:13;18.67;;;9.82;;
74231;SDS011;62590;52.430;4.902;2022-09-13T04:04:40;19.05;;;9.98;;
74231;SDS011;62590;52.430;4.902;2022-09-13T04:07:07;18.30;;;10.13;;
74231;SDS011;62590;52.430;4.902;2022-09-13T04:09:34;20.15;;;10.82;;
74231;SDS011;62590;52.430;4.902;2022-09-13T04:11:59;20.83;;;11.38;;
74231;SDS011;62590;52.430;4.902;2022-09-13T04:14:24;17.65;;;10.57;;
74231;SDS011;62590;52.430;4.902;2022-09-13T04:16:54;19.27;;;10.25;;
74231;SDS011;62590;52.430;4.902;2022-09-13T04:19:21;20.02;;;9.68;;
74231;SDS011;62590;52.430;4.902;2022-09-13T04:21:48;21.75;;;8.90;;
74231;SDS011;62590;52.430;4.902;2022-09-13T04:24:14;19.17;;;10.25;;
74231;SDS011;62590;52.430;4.902;2022-09-13T04:26:40;18.27;;;9.73;;
74231;SDS011;62590;52.430;4.902;2022-09-13T04:29:05;20.65;;;10.73;;
74231;SDS011;62590;52.430;4.902;2022-09-13T04:31:31;16.88;;;9.48;;
74231;SDS011;62590;52.430;4.902;2022-09-13T04:33:56;27.27;;;9.60;;
74231;SDS011;62590;52.430;4.902;2022-09-13T04:36:22;19.58;;;9.98;;
74231;SDS011;62590;52.430;4.902;2022-09-13T04:38:47;15.98;;;9.70;;
74231;SDS011;62590;52.430;4.902;2022-09-13T04:41:13;19.27;;;9.88;;
74231;SDS011;62590;52.430;4.902;2022-09-13T04:43:39;14.95;;;9.15;;
74231;SDS011;62590;52.430;4.902;2022-09-13T04:46:05;17.77;;;9.45;;
74231;SDS011;62590;52.430;4.902;2022-09-13T04:48:30;17.58;;;10.23;;
74231;SDS011;62590;52.430;4.902;2022-09-13T04:51:02;17.05;;;9.02;;
74231;SDS011;62590;52.430;4.902;2022-09-13T04:53:29;16.17;;;9.38;;
74231;SDS011;62590;52.430;4.902;2022-09-13T04:56:01;15.00;;;8.68;;
74231;SDS011;62590;52.430;4.902;2022-09-13T04:58:27;20.42;;;9.35;;
74231;SDS011;62590;52.430;4.902;2022-09-13T05:00:53;11.77;;;7.07;;
74231;SDS011;62590;52.430;4.902;2022-09-13T05:03:21;13.55;;;5.65;;
74231;SDS011;62590;52.430;4.902;2022-09-13T05:05:46;13.02;;;5.70;;
74231;SDS011;62590;52.430;4.902;2022-09-13T05:08:12;9.45;;;4.43;;
74231;SDS011;62590;52.430;4.902;2022-09-13T05:10:37;9.90;;;3.47;;
74231;SDS011;62590;52.430;4.902;2022-09-13T05:13:03;10.32;;;3.60;;
74231;SDS011;62590;52.430;4.902;2022-09-13T05:15:28;10.50;;;3.83;;
74231;SDS011;62590;52.430;4.902;2022-09-13T05:17:53;12.27;;;3.92;;
74231;SDS011;62590;52.430;4.902;2022-09-13T05:20:19;13.85;;;3.92;;
74231;SDS011;62590;52.430;4.902;2022-09-13T05:22:45;8.30;;;2.80;;
74231;SDS011;62590;52.430;4.902;2022-09-13T05:25:10;8.25;;;2.00;;
74231;SDS011;62590;52.430;4.902;2022-09-13T05:27:36;7.05;;;2.03;;
74231;SDS011;62590;52.430;4.902;2022-09-13T05:30:01;8.10;;;1.63;;
74231;SDS011;62590;52.430;4.902;2022-09-13T05:32:27;4.38;;;1.60;;
74231;SDS011;62590;52.430;4.902;2022-09-13T05:34:54;6.22;;;1.83;;
74231;SDS011;62590;52.430;4.902;2022-09-13T05:37:19;7.85;;;1.58;;
74231;SDS011;62590;52.430;4.902;2022-09-13T05:39:45;9.70;;;1.23;;
74231;SDS011;62590;52.430;4.902;2022-09-13T05:42:10;13.65;;;1.67;;
74231;SDS011;62590;52.430;4.902;2022-09-13T05:44:35;3.13;;;1.27;;
74231;SDS011;62590;52.430;4.902;2022-09-13T05:47:01;7.50;;;1.23;;
74231;SDS011;62590;52.430;4.902;2022-09-13T05:49:26;7.28;;;1.60;;
74231;SDS011;62590;52.430;4.902;2022-09-13T05:51:51;5.38;;;1.88;;
74231;SDS011;62590;52.430;4.902;2022-09-13T05:54:17;13.07;;;2.10;;
74231;SDS011;62590;52.430;4.902;2022-09-13T05:56:42;7.38;;;1.70;;
74231;SDS011;62590;52.430;4.902;2022-09-13T05:59:10;4.93;;;1.90;;
74231;SDS011;62590;52.430;4.902;2022-09-13T06:01:37;7.78;;;1.60;;
74231;SDS011;62590;52.430;4.902;2022-09-13T06:04:02;7.20;;;1.80;;
74231;SDS011;62590;52.430;4.902;2022-09-13T06:06:28;2.38;;;1.27;;
74231;SDS011;62590;52.430;4.902;2022-09-13T06:08:54;6.55;;;1.77;;
74231;SDS011;62590;52.430;4.902;2022-09-13T06:11:21;5.40;;;1.50;;
74231;SDS011;62590;52.430;4.902;2022-09-13T06:13:47;7.60;;;1.63;;
74231;SDS011;62590;52.430;4.902;2022-09-13T06:16:13;6.05;;;1.27;;
74231;SDS011;62590;52.430;4.902;2022-09-13T06:18:40;3.40;;;1.30;;
74231;SDS011;62590;52.430;4.902;2022-09-13T06:21:09;10.10;;;1.23;;
74231;SDS011;62590;52.430;4.902;2022-09-13T06:23:51;6.43;;;1.40;;
74231;SDS011;62590;52.430;4.902;2022-09-13T06:26:21;8.65;;;1.50;;
74231;SDS011;62590;52.430;4.902;2022-09-13T06:28:52;6.13;;;1.30;;
74231;SDS011;62590;52.430;4.902;2022-09-13T06:31:20;5.32;;;1.30;;
74231;SDS011;62590;52.430;4.902;2022-09-13T06:33:46;2.17;;;0.95;;
74231;SDS011;62590;52.430;4.902;2022-09-13T06:36:13;5.90;;;1.20;;
74231;SDS011;62590;52.430;4.902;2022-09-13T06:38:43;5.00;;;0.88;;
74231;SDS011;62590;52.430;4.902;2022-09-13T06:41:10;4.03;;;1.85;;
74231;SDS011;62590;52.430;4.902;2022-09-13T06:43:37;4.68;;;0.93;;
74231;SDS011;62590;52.430;4.902;2022-09-13T06:48:30;6.20;;;0.82;;
74231;SDS011;62590;52.430;4.902;2022-09-13T06:50:57;3.40;;;0.90;;
74231;SDS011;62590;52.430;4.902;2022-09-13T06:53:24;4.28;;;1.13;;
74231;SDS011;62590;52.430;4.902;2022-09-13T06:55:58;3.03;;;0.75;;
74231;SDS011;62590;52.430;4.902;2022-09-13T06:58:37;3.20;;;0.93;;
74231;SDS011;62590;52.430;4.902;2022-09-13T07:01:04;8.80;;;1.58;;
74231;SDS011;62590;52.430;4.902;2022-09-13T07:03:50;4.00;;;1.30;;
74231;SDS011;62590;52.430;4.902;2022-09-13T07:06:18;5.47;;;1.20;;
74231;SDS011;62590;52.430;4.902;2022-09-13T07:08:48;7.78;;;1.00;;
74231;SDS011;62590;52.430;4.902;2022-09-13T07:11:16;3.88;;;1.10;;
74231;SDS011;62590;52.430;4.902;2022-09-13T07:13:46;4.38;;;0.90;;
74231;SDS011;62590;52.430;4.902;2022-09-13T07:16:13;5.60;;;1.05;;
74231;SDS011;62590;52.430;4.902;2022-09-13T07:18:39;4.10;;;1.00;;
74231;SDS011;62590;52.430;4.902;2022-09-13T07:21:05;3.03;;;1.02;;
74231;SDS011;62590;52.430;4.902;2022-09-13T07:23:33;1.95;;;0.85;;
74231;SDS011;62590;52.430;4.902;2022-09-13T07:26:00;6.80;;;0.93;;
74231;SDS011;62590;52.430;4.902;2022-09-13T07:28:30;3.60;;;1.08;;
74231;SDS011;62590;52.430;4.902;2022-09-13T07:31:03;7.60;;;1.23;;
74231;SDS011;62590;52.430;4.902;2022-09-13T07:33:52;11.50;;;0.90;;
74231;SDS011;62590;52.430;4.902;2022-09-13T07:36:19;2.95;;;0.60;;
74231;SDS011;62590;52.430;4.902;2022-09-13T07:38:44;5.00;;;0.98;;
74231;SDS011;62590;52.430;4.902;2022-09-13T07:41:11;4.88;;;0.65;;
74231;SDS011;62590;52.430;4.902;2022-09-13T07:43:38;4.80;;;0.70;;
74231;SDS011;62590;52.430;4.902;2022-09-13T07:46:05;4.97;;;0.60;;
74231;SDS011;62590;52.430;4.902;2022-09-13T07:48:38;11.23;;;1.00;;
74231;SDS011;62590;52.430;4.902;2022-09-13T07:53:41;7.00;;;0.82;;
74231;SDS011;62590;52.430;4.902;2022-09-13T07:58:35;7.82;;;0.95;;
74231;SDS011;62590;52.430;4.902;2022-09-13T08:01:17;5.10;;;0.85;;
74231;SDS011;62590;52.430;4.902;2022-09-13T08:03:51;6.18;;;1.00;;
74231;SDS011;62590;52.430;4.902;2022-09-13T08:06:22;4.30;;;0.70;;
74231;SDS011;62590;52.430;4.902;2022-09-13T08:08:48;4.55;;;1.00;;
74231;SDS011;62590;52.430;4.902;2022-09-13T08:11:28;6.47;;;1.13;;
74231;SDS011;62590;52.430;4.902;2022-09-13T08:14:05;6.05;;;0.90;;
74231;SDS011;62590;52.430;4.902;2022-09-13T08:16:33;11.88;;;1.10;;
74231;SDS011;62590;52.430;4.902;2022-09-13T08:19:00;7.45;;;1.00;;
74231;SDS011;62590;52.430;4.902;2022-09-13T08:21:30;3.05;;;0.90;;
74231;SDS011;62590;52.430;4.902;2022-09-13T08:23:57;5.15;;;0.63;;
74231;SDS011;62590;52.430;4.902;2022-09-13T08:26:24;9.10;;;1.25;;
74231;SDS011;62590;52.430;4.902;2022-09-13T08:28:57;9.77;;;1.85;;
74231;SDS011;62590;52.430;4.902;2022-09-13T08:31:24;11.55;;;1.60;;
74231;SDS011;62590;52.430;4.902;2022-09-13T08:33:50;5.40;;;1.17;;
74231;SDS011;62590;52.430;4.902;2022-09-13T08:36:16;10.18;;;1.25;;
74231;SDS011;62590;52.430;4.902;2022-09-13T08:38:46;5.10;;;1.10;;
74231;SDS011;62590;52.430;4.902;2022-09-13T08:41:19;8.98;;;1.35;;
74231;SDS011;62590;52.430;4.902;2022-09-13T08:43:55;7.15;;;1.20;;
74231;SDS011;62590;52.430;4.902;2022-09-13T08:46:31;7.82;;;1.48;;
74231;SDS011;62590;52.430;4.902;2022-09-13T08:49:02;6.95;;;1.50;;
74231;SDS011;62590;52.430;4.902;2022-09-13T08:54:12;5.43;;;1.38;;
74231;SDS011;62590;52.430;4.902;2022-09-13T08:56:44;4.55;;;1.45;;
74231;SDS011;62590;52.430;4.902;2022-09-13T09:02:29;6.10;;;1.50;;
74231;SDS011;62590;52.430;4.902;2022-09-13T09:05:05;5.65;;;0.95;;
74231;SDS011;62590;52.430;4.902;2022-09-13T09:07:36;7.75;;;1.10;;
74231;SDS011;62590;52.430;4.902;2022-09-13T09:10:10;8.98;;;1.65;;
74231;SDS011;62590;52.430;4.902;2022-09-13T09:15:28;6.50;;;1.02;;
74231;SDS011;62590;52.430;4.902;2022-09-13T09:18:09;4.88;;;1.13;;
74231;SDS011;62590;52.430;4.902;2022-09-13T09:23:21;4.10;;;0.70;;
74231;SDS011;62590;52.430;4.902;2022-09-13T09:25:54;6.57;;;0.68;;
74231;SDS011;62590;52.430;4.902;2022-09-13T09:28:21;5.07;;;0.98;;
74231;SDS011;62590;52.430;4.902;2022-09-13T09:33:44;2.42;;;0.95;;
74231;SDS011;62590;52.430;4.902;2022-09-13T09:38:52;3.97;;;1.05;;
74231;SDS011;62590;52.430;4.902;2022-09-13T09:41:23;8.55;;;1.00;;
74231;SDS011;62590;52.430;4.902;2022-09-13T09:43:54;4.40;;;0.82;;
74231;SDS011;62590;52.430;4.902;2022-09-13T09:46:27;1.88;;;0.60;;
74231;SDS011;62590;52.430;4.902;2022-09-13T09:49:00;7.72;;;1.70;;
74231;SDS011;62590;52.430;4.902;2022-09-13T09:51:51;3.13;;;0.82;;
74231;SDS011;62590;52.430;4.902;2022-09-13T09:54:18;6.82;;;0.70;;
74231;SDS011;62590;52.430;4.902;2022-09-13T09:56:51;3.40;;;0.60;;
74231;SDS011;62590;52.430;4.902;2022-09-13T09:59:25;2.70;;;0.70;;
74231;SDS011;62590;52.430;4.902;2022-09-13T10:01:56;5.32;;;1.13;;
74231;SDS011;62590;52.430;4.902;2022-09-13T10:04:22;5.75;;;1.20;;
74231;SDS011;62590;52.430;4.902;2022-09-13T10:06:48;4.18;;;0.77;;
74231;SDS011;62590;52.430;4.902;2022-09-13T10:09:18;3.35;;;0.60;;
74231;SDS011;62590;52.430;4.902;2022-09-13T10:14:26;1.75;;;0.40;;
74231;SDS011;62590;52.430;4.902;2022-09-13T10:20:17;4.90;;;0.95;;
74231;SDS011;62590;52.430;4.902;2022-09-13T10:22:39;3.60;;;1.00;;
74231;SDS011;62590;52.430;4.902;2022-09-13T10:25:17;7.80;;;0.63;;
74231;SDS011;62590;52.430;4.902;2022-09-13T10:27:47;6.50;;;0.80;;
74231;SDS011;62590;52.430;4.902;2022-09-13T10:30:25;6.65;;;0.80;;
74231;SDS011;62590;52.430;4.902;2022-09-13T10:32:54;3.63;;;0.50;;
74231;SDS011;62590;52.430;4.902;2022-09-13T10:35:21;8.32;;;1.08;;
74231;SDS011;62590;52.430;4.902;2022-09-13T10:37:47;4.93;;;1.15;;
74231;SDS011;62590;52.430;4.902;2022-09-13T10:40:29;4.68;;;0.75;;
74231;SDS011;62590;52.430;4.902;2022-09-13T10:43:03;5.80;;;1.00;;
74231;SDS011;62590;52.430;4.902;2022-09-13T10:45:36;7.22;;;1.42;;
74231;SDS011;62590;52.430;4.902;2022-09-13T10:48:04;6.65;;;0.80;;
74231;SDS011;62590;52.430;4.902;2022-09-13T10:50:36;3.58;;;0.55;;
74231;SDS011;62590;52.430;4.902;2022-09-13T10:53:01;6.13;;;0.82;;
74231;SDS011;62590;52.430;4.902;2022-09-13T11:00:30;8.15;;;0.63;;
74231;SDS011;62590;52.430;4.902;2022-09-13T11:14:14;5.93;;;0.68;;
74231;SDS011;62590;52.430;4.902;2022-09-13T11:19:01;5.45;;;0.80;;
74231;SDS011;62590;52.430;4.902;2022-09-13T11:22:07;2.90;;;0.70;;
74231;SDS011;62590;52.430;4.902;2022-09-13T11:31:06;4.07;;;0.82;;
74231;SDS011;62590;52.430;4.902;2022-09-13T11:39:31;6.82;;;0.70;;
74231;SDS011;62590;52.430;4.902;2022-09-13T11:45:03;4.38;;;0.85;;
74231;SDS011;62590;52.430;4.902;2022-09-13T11:47:30;6.00;;;0.88;;
74231;SDS011;62590;52.430;4.902;2022-09-13T11:55:52;4.45;;;0.82;;
74231;SDS011;62590;52.430;4.902;2022-09-13T11:58:41;3.10;;;0.70;;
74231;SDS011;62590;52.430;4.902;2022-09-13T12:01:16;7.03;;;0.65;;
74231;SDS011;62590;52.430;4.902;2022-09-13T12:07:05;4.68;;;1.30;;
74231;SDS011;62590;52.430;4.902;2022-09-13T12:09:40;5.57;;;0.57;;
74231;SDS011;62590;52.430;4.902;2022-09-13T12:12:15;12.27;;;1.13;;
74231;SDS011;62590;52.430;4.902;2022-09-13T12:14:48;5.70;;;1.00;;
74231;SDS011;62590;52.430;4.902;2022-09-13T12:17:33;3.95;;;0.73;;
74231;SDS011;62590;52.430;4.902;2022-09-13T12:20:04;6.07;;;0.63;;
74231;SDS011;62590;52.430;4.902;2022-09-13T12:22:37;6.22;;;0.68;;
74231;SDS011;62590;52.430;4.902;2022-09-13T12:25:04;15.95;;;1.30;;
74231;SDS011;62590;52.430;4.902;2022-09-13T12:27:38;6.13;;;0.97;;
74231;SDS011;62590;52.430;4.902;2022-09-13T12:30:14;8.80;;;0.80;;
74231;SDS011;62590;52.430;4.902;2022-09-13T12:32:42;6.78;;;0.68;;
74231;SDS011;62590;52.430;4.902;2022-09-13T12:45:34;8.32;;;1.50;;
74231;SDS011;62590;52.430;4.902;2022-09-13T12:48:18;5.68;;;0.80;;
74231;SDS011;62590;52.430;4.902;2022-09-13T13:02:00;4.70;;;0.70;;
74231;SDS011;62590;52.430;4.902;2022-09-13T13:04:32;4.22;;;0.60;;
74231;SDS011;62590;52.430;4.902;2022-09-13T13:07:15;4.55;;;0.68;;
74231;SDS011;62590;52.430;4.902;2022-09-13T13:09:44;7.10;;;0.50;;
74231;SDS011;62590;52.430;4.902;2022-09-13T13:12:34;2.92;;;0.43;;
74231;SDS011;62590;52.430;4.902;2022-09-13T13:15:04;4.07;;;0.55;;
74231;SDS011;62590;52.430;4.902;2022-09-13T13:17:53;3.88;;;0.60;;
74231;SDS011;62590;52.430;4.902;2022-09-13T13:23:32;5.80;;;0.65;;
74231;SDS011;62590;52.430;4.902;2022-09-13T13:29:33;6.25;;;0.70;;
74231;SDS011;62590;52.430;4.902;2022-09-13T13:32:26;3.25;;;0.50;;
74231;SDS011;62590;52.430;4.902;2022-09-13T13:34:29;3.53;;;0.57;;
74231;SDS011;62590;52.430;4.902;2022-09-13T13:37:00;4.68;;;0.63;;
74231;SDS011;62590;52.430;4.902;2022-09-13T13:47:39;11.25;;;1.10;;
74231;SDS011;62590;52.430;4.902;2022-09-13T13:59:44;3.50;;;0.70;;
74231;SDS011;62590;52.430;4.902;2022-09-13T14:02:13;6.30;;;0.60;;
74231;SDS011;62590;52.430;4.902;2022-09-13T14:04:56;7.03;;;0.90;;
74231;SDS011;62590;52.430;4.902;2022-09-13T14:07:51;2.45;;;0.85;;
74231;SDS011;62590;52.430;4.902;2022-09-13T14:16:00;4.10;;;0.70;;
74231;SDS011;62590;52.430;4.902;2022-09-13T14:19:18;3.33;;;0.52;;
74231;SDS011;62590;52.430;4.902;2022-09-13T14:21:39;3.08;;;0.80;;
74231;SDS011;62590;52.430;4.902;2022-09-13T14:24:14;4.65;;;0.60;;
74231;SDS011;62590;52.430;4.902;2022-09-13T14:26:45;13.40;;;8.88;;
74231;SDS011;62590;52.430;4.902;2022-09-13T14:29:14;12.82;;;8.00;;
74231;SDS011;62590;52.430;4.902;2022-09-13T14:31:44;5.57;;;2.40;;
74231;SDS011;62590;52.430;4.902;2022-09-13T14:34:20;9.07;;;1.13;;
74231;SDS011;62590;52.430;4.902;2022-09-13T14:37:15;7.45;;;0.98;;
74231;SDS011;62590;52.430;4.902;2022-09-13T14:39:56;18.48;;;6.30;;
74231;SDS011;62590;52.430;4.902;2022-09-13T14:42:36;19.80;;;8.85;;
74231;SDS011;62590;52.430;4.902;2022-09-13T14:45:03;31.00;;;13.70;;
74231;SDS011;62590;52.430;4.902;2022-09-13T14:47:34;7.72;;;3.63;;
74231;SDS011;62590;52.430;4.902;2022-09-13T14:50:15;11.68;;;5.53;;
74231;SDS011;62590;52.430;4.902;2022-09-13T14:52:49;6.13;;;3.00;;
74231;SDS011;62590;52.430;4.902;2022-09-13T14:55:30;5.35;;;0.90;;
74231;SDS011;62590;52.430;4.902;2022-09-13T14:58:02;4.40;;;0.63;;
74231;SDS011;62590;52.430;4.902;2022-09-13T15:00:32;2.10;;;0.63;;
74231;SDS011;62590;52.430;4.902;2022-09-13T15:03:12;6.63;;;0.75;;
74231;SDS011;62590;52.430;4.902;2022-09-13T15:05:40;6.95;;;0.85;;
74231;SDS011;62590;52.430;4.902;2022-09-13T15:10:51;5.25;;;1.05;;
74231;SDS011;62590;52.430;4.902;2022-09-13T15:13:16;4.07;;;0.82;;
74231;SDS011;62590;52.430;4.902;2022-09-13T15:15:42;3.67;;;0.80;;
74231;SDS011;62590;52.430;4.902;2022-09-13T15:23:20;3.13;;;0.75;;
74231;SDS011;62590;52.430;4.902;2022-09-13T15:25:54;6.05;;;0.80;;
74231;SDS011;62590;52.430;4.902;2022-09-13T15:28:27;4.32;;;0.40;;
74231;SDS011;62590;52.430;4.902;2022-09-13T15:30:55;5.03;;;0.85;;
74231;SDS011;62590;52.430;4.902;2022-09-13T15:33:27;8.98;;;0.98;;
74231;SDS011;62590;52.430;4.902;2022-09-13T15:36:27;5.53;;;0.88;;
74231;SDS011;62590;52.430;4.902;2022-09-13T15:39:00;4.80;;;1.00;;
74231;SDS011;62590;52.430;4.902;2022-09-13T15:41:33;8.13;;;1.20;;
74231;SDS011;62590;52.430;4.902;2022-09-13T15:44:00;4.60;;;1.10;;
74231;SDS011;62590;52.430;4.902;2022-09-13T15:46:27;11.20;;;1.17;;
74231;SDS011;62590;52.430;4.902;2022-09-13T15:48:54;6.13;;;1.00;;
74231;SDS011;62590;52.430;4.902;2022-09-13T15:51:24;6.22;;;0.82;;
74231;SDS011;62590;52.430;4.902;2022-09-13T15:53:50;7.50;;;1.00;;
74231;SDS011;62590;52.430;4.902;2022-09-13T15:56:17;2.90;;;0.60;;
74231;SDS011;62590;52.430;4.902;2022-09-13T15:58:45;8.23;;;1.10;;
74231;SDS011;62590;52.430;4.902;2022-09-13T16:01:11;4.75;;;0.73;;
74231;SDS011;62590;52.430;4.902;2022-09-13T16:03:38;9.32;;;1.20;;
74231;SDS011;62590;52.430;4.902;2022-09-13T16:06:04;6.88;;;1.27;;
74231;SDS011;62590;52.430;4.902;2022-09-13T16:08:31;8.90;;;1.02;;
74231;SDS011;62590;52.430;4.902;2022-09-13T16:10:56;5.70;;;0.95;;
74231;SDS011;62590;52.430;4.902;2022-09-13T16:13:22;3.60;;;0.98;;
74231;SDS011;62590;52.430;4.902;2022-09-13T16:15:47;6.32;;;1.00;;
74231;SDS011;62590;52.430;4.902;2022-09-13T16:18:13;5.65;;;1.05;;
74231;SDS011;62590;52.430;4.902;2022-09-13T16:20:41;5.93;;;1.20;;
74231;SDS011;62590;52.430;4.902;2022-09-13T16:23:06;11.48;;;1.20;;
74231;SDS011;62590;52.430;4.902;2022-09-13T16:25:32;10.23;;;1.27;;
74231;SDS011;62590;52.430;4.902;2022-09-13T16:27:58;5.55;;;1.10;;
74231;SDS011;62590;52.430;4.902;2022-09-13T16:30:24;3.40;;;0.68;;
74231;SDS011;62590;52.430;4.902;2022-09-13T16:32:51;6.40;;;0.95;;
74231;SDS011;62590;52.430;4.902;2022-09-13T16:35:17;11.82;;;1.80;;
74231;SDS011;62590;52.430;4.902;2022-09-13T16:37:43;7.63;;;1.30;;
74231;SDS011;62590;52.430;4.902;2022-09-13T16:40:09;11.55;;;1.33;;
74231;SDS011;62590;52.430;4.902;2022-09-13T16:42:34;4.47;;;0.90;;
74231;SDS011;62590;52.430;4.902;2022-09-13T16:45:00;9.27;;;1.20;;
74231;SDS011;62590;52.430;4.902;2022-09-13T16:47:25;10.45;;;1.77;;
74231;SDS011;62590;52.430;4.902;2022-09-13T16:49:51;6.25;;;1.65;;
74231;SDS011;62590;52.430;4.902;2022-09-13T16:52:16;12.18;;;1.75;;
74231;SDS011;62590;52.430;4.902;2022-09-13T16:54:42;13.52;;;1.52;;
74231;SDS011;62590;52.430;4.902;2022-09-13T16:57:10;11.20;;;1.45;;
74231;SDS011;62590;52.430;4.902;2022-09-13T16:59:37;7.85;;;1.13;;
74231;SDS011;62590;52.430;4.902;2022-09-13T17:02:05;6.30;;;1.45;;
74231;SDS011;62590;52.430;4.902;2022-09-13T17:04:31;5.43;;;0.70;;
74231;SDS011;62590;52.430;4.902;2022-09-13T17:06:56;15.98;;;1.23;;
74231;SDS011;62590;52.430;4.902;2022-09-13T17:09:22;10.32;;;2.17;;
74231;SDS011;62590;52.430;4.902;2022-09-13T17:11:51;12.77;;;1.73;;
74231;SDS011;62590;52.430;4.902;2022-09-13T17:14:17;7.50;;;1.55;;
74231;SDS011;62590;52.430;4.902;2022-09-13T17:16:44;8.38;;;1.35;;
74231;SDS011;62590;52.430;4.902;2022-09-13T17:19:14;6.47;;;1.08;;
74231;SDS011;62590;52.430;4.902;2022-09-13T17:21:43;13.60;;;1.63;;
74231;SDS011;62590;52.430;4.902;2022-09-13T17:24:10;11.23;;;2.13;;
74231;SDS011;62590;52.430;4.902;2022-09-13T17:26:35;11.00;;;1.67;;
74231;SDS011;62590;52.430;4.902;2022-09-13T17:29:01;8.85;;;1.45;;
74231;SDS011;62590;52.430;4.902;2022-09-13T17:31:27;6.97;;;1.30;;
74231;SDS011;62590;52.430;4.902;2022-09-13T17:33:52;9.70;;;1.40;;
74231;SDS011;62590;52.430;4.902;2022-09-13T17:36:18;9.98;;;1.88;;
74231;SDS011;62590;52.430;4.902;2022-09-13T17:38:44;9.60;;;1.90;;
74231;SDS011;62590;52.430;4.902;2022-09-13T17:41:11;8.80;;;1.27;;
74231;SDS011;62590;52.430;4.902;2022-09-13T17:43:38;8.02;;;1.05;;
74231;SDS011;62590;52.430;4.902;2022-09-13T17:46:06;7.93;;;1.60;;
74231;SDS011;62590;52.430;4.902;2022-09-13T17:48:34;4.72;;;1.40;;
74231;SDS011;62590;52.430;4.902;2022-09-13T17:51:03;9.52;;;1.02;;
74231;SDS011;62590;52.430;4.902;2022-09-13T17:53:37;7.80;;;1.05;;
74231;SDS011;62590;52.430;4.902;2022-09-13T17:56:04;7.10;;;1.00;;
74231;SDS011;62590;52.430;4.902;2022-09-13T17:58:30;9.00;;;1.33;;
74231;SDS011;62590;52.430;4.902;2022-09-13T18:00:59;12.93;;;1.10;;
74231;SDS011;62590;52.430;4.902;2022-09-13T18:03:31;6.03;;;1.02;;
74231;SDS011;62590;52.430;4.902;2022-09-13T18:05:57;16.17;;;1.63;;
74231;SDS011;62590;52.430;4.902;2022-09-13T18:08:24;3.88;;;0.90;;
74231;SDS011;62590;52.430;4.902;2022-09-13T18:10:50;13.05;;;2.03;;